Latest Weather Observations for Lake Macquarie - Cooranbong

IDN60901

Issued at 12:42 pm EDT Monday 2 February 2015 (issued every 10 minutes, with the page automatically refreshed every 10 minutes)

About weather observations | Map of Sydney area stations | Latest observations for Sydney area | Other Formats
Station Details ID: 061412 Name: LAKE MACQUARIE AWS Lat: -33.09 Lon: 151.46 Height: 6.0 m
Data from the previous 72 hours. | See also: Recent months at Lake Macquarie - Cooranbong
Date/Time
EDT
Tmp

°C
App
Tmp
°C
Dew
Point
°C
Rel
Hum
%
Delta-T

°C
Wind Press
QNH
hPa
Press
MSL
hPa
Rain
since
9 am
mm
Dir
 
Spd
km/h
Gust
km/h
Spd
kts
Gust
kts
02/12:30pm 23.9 24.2 15.9 61 4.8 SSE 9 17 5 9 1015.6 1015.6 0.2
02/12:00pm 24.9 25.0 15.5 56 5.7 SSE 9 19 5 10 1015.6 1015.6 0.2
02/11:30am 24.3 24.5 15.8 59 5.1 S 9 17 5 9 1015.6 1015.6 0.2
02/11:00am 23.8 24.4 16.8 65 4.3 SE 9 19 5 10 1015.4 1015.4 0.0
02/10:30am 22.7 23.1 16.3 67 3.9 SSE 9 17 5 9 1015.4 1015.4 0.0
02/10:00am 22.5 22.9 16.3 68 3.8 SW 9 19 5 10 1015.2 1015.2 0.0
02/09:30am 21.7 22.8 16.6 73 3.1 SSW 6 11 3 6 1015.2 1015.2 0.0
02/09:00am 21.1 21.9 16.3 74 2.9 SSW 7 17 4 9 1015.0 1015.0 1.0
02/08:30am 20.3 21.2 16.5 79 2.3 SW 7 15 4 8 1014.6 1014.6 1.0
02/08:00am 19.2 19.9 15.7 80 2.1 SW 6 15 3 8 1014.3 1014.3 1.0
02/07:30am 19.2 20.6 16.4 84 1.7 SW 4 6 2 3 1013.9 1013.9 1.0
02/07:00am 18.3 20.0 16.3 88 1.2 S 2 6 1 3 1013.3 1013.3 1.0
02/06:30am 18.2 19.8 16.0 87 1.3 SW 2 6 1 3 1013.0 1013.0 1.0
02/06:00am 17.9 19.6 16.1 89 1.1 SW 2 6 1 3 1012.8 1012.8 1.0
02/05:30am 17.4 19.0 15.9 91 0.9 S 2 4 1 2 1012.4 1012.4 1.0
02/05:00am 17.4 19.3 15.7 90 1.0 CALM 0 4 0 2 1012.1 1012.1 1.0
02/04:30am 17.7 19.6 15.7 88 1.2 CALM 0 4 0 2 1011.9 1011.9 1.0
02/04:00am 18.2 19.4 16.0 87 1.3 SW 4 6 2 3 1011.7 1011.7 1.0
02/03:30am 18.6 20.3 16.2 86 1.4 SW 2 7 1 4 1011.7 1011.7 1.0
02/03:00am 18.9 20.6 16.3 85 1.6 SW 2 4 1 2 1011.9 1011.9 1.0
02/02:30am 19.2 20.2 16.4 84 1.7 SW 6 7 3 4 1011.8 1011.8 1.0
02/02:00am 19.0 20.8 16.4 85 1.6 SSW 2 6 1 3 1012.2 1012.2 1.0
02/01:30am 19.4 20.7 16.2 82 1.9 SW 4 7 2 4 1012.1 1012.1 1.0
02/01:00am 19.6 21.0 16.4 82 1.9 SSW 4 7 2 4 1012.3 1012.3 1.0
02/12:30am 19.9 21.4 16.7 82 1.9 SW 4 9 2 5 1012.2 1012.2 1.0
02/12:00am 20.0 21.6 17.0 83 1.8 SSW 4 7 2 4 1012.2 1012.2 1.0
 
Date/Time
EDT
Tmp

°C
App
Tmp
°C
Dew
Point
°C
Rel
Hum
%
Delta-T

°C
Wind Press
QNH
hPa
Press
MSL
hPa
Rain
since
9 am
mm
Dir
 
Spd
km/h
Gust
km/h
Spd
kts
Gust
kts
01/11:30pm 19.7 22.3 17.5 87 1.3 CALM 0 0 0 0 1012.2 1012.2 1.0
01/11:00pm 19.5 21.9 17.1 86 1.5 CALM 0 0 0 0 1011.9 1011.9 1.0
01/10:30pm 19.9 22.4 17.3 85 1.6 CALM 0 0 0 0 1011.7 1011.7 1.0
01/10:00pm 20.3 22.7 16.9 81 2.1 CALM 0 0 0 0 1011.5 1011.5 1.0
01/09:00pm 21.7 24.1 16.9 74 2.9 CALM 0 2 0 1 1011.3 1011.3 1.0
01/08:30pm 22.0 23.4 16.5 71 3.3 SSW 4 7 2 4 1011.2 1011.2 1.0
01/08:00pm 22.1 23.6 16.6 71 3.3 SSE 4 7 2 4 1010.5 1010.5 1.0
01/07:30pm 22.3 23.2 16.1 68 3.7 E 6 13 3 7 1009.9 1009.9 1.0
01/07:00pm 22.6 24.2 16.9 70 3.5 SSE 4 9 2 5 1010.1 1010.1 1.0
01/06:30pm 22.5 22.9 16.3 68 3.8 ESE 9 15 5 8 1009.7 1009.7 1.0
01/06:00pm 22.9 23.5 16.7 68 3.8 ESE 9 17 5 9 1009.1 1009.1 1.0
01/05:30pm 23.5 24.1 16.8 66 4.1 ESE 9 19 5 10 1009.0 1009.0 1.0
01/05:00pm 23.4 23.7 16.9 67 4.0 ESE 11 17 6 9 1008.6 1008.6 1.0
01/04:30pm 23.9 23.6 16.4 63 4.6 ESE 13 24 7 13 1008.7 1008.7 1.0
01/04:00pm 24.7 25.5 17.2 63 4.7 ESE 9 19 5 10 1008.9 1008.9 1.0
01/03:30pm 23.5 24.7 17.3 68 3.8 ESE 7 13 4 7 1009.0 1009.0 1.0
01/03:00pm 24.1 24.6 17.4 66 4.2 E 11 20 6 11 1009.1 1009.1 1.0
01/02:30pm 23.3 25.3 18.8 76 2.8 ESE 6 11 3 6 1009.1 1009.1 1.0
01/02:00pm 22.7 24.0 18.5 77 2.6 ESE 9 15 5 8 1009.3 1009.3 0.8
01/01:30pm 24.4 24.9 17.4 65 4.4 E 11 19 6 10 1009.2 1009.2 0.0
01/01:00pm 23.9 25.3 17.4 67 4.0 E 6 17 3 9 1009.4 1009.4 0.0
01/12:30pm 24.3 25.4 17.1 64 4.5 ESE 7 15 4 8 1009.4 1009.4 0.0
01/12:00pm 24.0 24.2 16.8 64 4.4 ESE 11 20 6 11 1009.7 1009.7 0.0
01/11:30am 22.6 23.8 17.3 72 3.3 SE 7 13 4 7 1009.8 1009.8 0.0
01/11:00am 23.6 23.7 16.6 65 4.3 ESE 11 19 6 10 1009.7 1009.7 0.0
01/10:30am 23.0 24.1 17.0 69 3.7 ESE 7 13 4 7 1009.8 1009.8 0.0
01/10:00am 23.2 24.5 17.2 69 3.7 SSE 6 17 3 9 1009.8 1009.8 0.0
01/09:30am 22.9 24.4 17.6 72 3.3 SE 6 9 3 5 1009.7 1009.7 0.0
01/09:00am 23.2 25.5 17.7 71 3.4 SE 2 6 1 3 1009.5 1009.5 0.2
01/08:30am 21.5 24.2 17.7 79 2.3 CALM 0 0 0 0 1009.3 1009.3 0.2
01/08:00am 21.1 24.0 18.1 83 1.9 CALM 0 0 0 0 1009.1 1009.1 0.2
01/07:30am 19.5 22.4 18.2 92 0.8 CALM 0 0 0 0 1009.0 1009.0 0.2
01/07:00am 18.8 21.6 18.0 95 0.5 CALM 0 0 0 0 1008.8 1008.8 0.2
01/06:30am 18.3 20.7 17.1 93 0.7 CALM 0 0 0 0 1008.5 1008.4 0.2
01/06:00am 18.4 20.8 17.1 92 0.8 CALM 0 0 0 0 1008.1 1008.0 0.2
01/05:30am 18.7 21.3 17.4 92 0.8 CALM 0 0 0 0 1007.9 1007.8 0.2
01/05:00am 19.1 21.8 17.8 92 0.8 CALM 0 0 0 0 1007.8 1007.7 0.2
01/04:30am 19.2 22.0 17.9 92 0.8 CALM 0 0 0 0 1007.6 1007.5 0.2
01/04:00am 19.2 22.0 17.9 92 0.8 CALM 0 0 0 0 1007.6 1007.5 0.2
01/03:30am 19.3 22.0 17.8 91 0.9 CALM 0 0 0 0 1007.7 1007.6 0.2
01/03:00am 19.4 21.8 17.9 91 0.9 WNW 2 4 1 2 1008.0 1007.9 0.2
01/02:30am 19.1 21.7 17.4 90 1.0 CALM 0 0 0 0 1008.3 1008.2 0.2
01/02:00am 19.3 21.4 17.3 88 1.2 N 2 6 1 3 1008.4 1008.3 0.2
01/01:30am 19.7 22.1 16.9 84 1.7 CALM 0 0 0 0 1008.4 1008.3 0.0
01/01:00am 19.5 21.9 17.1 86 1.5 CALM 0 0 0 0 1008.5 1008.4 0.0
01/12:30am 19.7 22.1 16.9 84 1.7 CALM 0 0 0 0 1008.9 1008.9 0.0
01/12:00am 19.9 22.3 16.9 83 1.8 CALM 0 0 0 0 1009.1 1009.1 0.0
 
Date/Time
EDT
Tmp

°C
App
Tmp
°C
Dew
Point
°C
Rel
Hum
%
Delta-T

°C
Wind Press
QNH
hPa
Press
MSL
hPa
Rain
since
9 am
mm
Dir
 
Spd
km/h
Gust
km/h
Spd
kts
Gust
kts
31/11:30pm 19.9 22.3 17.1 84 1.7 CALM 0 0 0 0 1009.1 1009.1 0.0
31/11:00pm 20.5 23.0 17.3 82 2.0 CALM 0 0 0 0 1009.2 1009.2 0.0
31/10:30pm 20.7 23.1 17.1 80 2.2 CALM 0 0 0 0 1009.0 1009.0 0.0
31/10:00pm 21.1 23.6 17.3 79 2.3 CALM 0 0 0 0 1008.8 1008.8 0.0
31/09:30pm 21.2 23.4 16.6 75 2.8 CALM 0 0 0 0 1008.5 1008.4 0.0
31/09:00pm 21.2 23.4 16.4 74 2.9 CALM 0 0 0 0 1008.1 1008.0 0.0
31/08:30pm 21.8 23.8 15.9 69 3.5 CALM 0 2 0 1 1007.7 1007.6 0.0
31/08:00pm 22.1 23.7 15.9 68 3.7 SE 2 6 1 3 1007.4 1007.3 0.0
31/07:30pm 22.7 23.1 15.3 63 4.4 ESE 7 11 4 6 1007.0 1006.9 0.0
31/07:00pm 23.6 23.9 15.1 59 5.1 E 7 13 4 7 1006.6 1006.5 0.0
31/06:30pm 23.4 23.4 15.2 60 4.9 E 9 15 5 8 1006.0 1005.9 0.0
31/06:00pm 24.3 23.5 15.2 57 5.5 ESE 13 20 7 11 1005.8 1005.7 0.0
31/05:30pm 24.7 24.5 15.6 57 5.5 ESE 11 19 6 10 1005.6 1005.5 0.0
31/05:00pm 24.5 24.1 15.1 55 5.7 E 11 17 6 9 1005.5 1005.4 0.0
31/04:30pm 24.8 24.6 14.6 53 6.1 E 9 22 5 12 1005.6 1005.5 0.0
31/04:00pm 24.9 24.6 14.4 52 6.3 E 9 19 5 10 1005.7 1005.6 0.0
31/03:30pm 24.2 23.2 13.4 51 6.3 E 11 17 6 9 1005.8 1005.7 0.0
31/03:00pm 24.6 23.6 13.5 50 6.5 E 11 17 6 9 1005.8 1005.7 0.0
31/02:30pm 24.7 23.0 13.6 50 6.5 ESE 15 20 8 11 1006.0 1005.9 0.0
31/02:00pm 24.8 23.9 13.7 50 6.5 E 11 20 6 11 1006.2 1006.1 0.0
31/01:30pm 24.6 24.4 13.5 50 6.5 E 7 13 4 7 1006.4 1006.3 0.0
31/01:00pm 25.7 25.3 14.2 49 6.8 E 9 17 5 9 1006.5 1006.4 0.0
31/12:30pm 25.8 25.9 14.0 48 7.0 NE 6 11 3 6 1006.7 1006.6 0.0
31/12:00pm 25.4 25.1 12.6 45 7.4 WSW 6 9 3 5 1007.1 1007.0 0.0
31/11:30am 25.1 25.3 13.0 47 7.0 ENE 4 9 2 5 1007.5 1007.4 0.0
31/11:00am 24.5 24.2 11.5 44 7.4 ENE 4 9 2 5 1007.8 1007.7 0.0
31/10:30am 24.0 23.8 11.7 46 6.9 E 4 7 2 4 1008.2 1008.1 0.0
31/10:00am 23.3 23.0 11.4 47 6.7 WSW 4 7 2 4 1008.4 1008.3 0.0
31/09:30am 22.8 22.2 11.8 50 6.2 SE 6 9 3 5 1008.4 1008.3 0.0
31/09:00am 21.6 21.8 13.2 59 4.8 S 4 6 2 3 1008.4 1008.3 0.0
31/08:30am 19.7 21.2 14.7 73 2.9 CALM 0 0 0 0 1008.2 1008.1 0.0
31/08:00am 17.1 18.4 14.2 83 1.7 CALM 0 0 0 0 1008.1 1008.0 0.0
31/07:30am 15.1 16.5 14.5 96 0.3 CALM 0 0 0 0 1007.9 1007.8 0.0
31/07:00am 13.7 14.7 13.1 96 0.3 CALM 0 0 0 0 1007.7 1007.6 0.0
31/06:30am 12.7 13.3 11.9 95 0.4 CALM 0 0 0 0 1007.5 1007.4 0.0
31/06:00am 12.7 13.3 11.8 94 0.5 CALM 0 0 0 0 1007.4 1007.3 0.0
31/05:30am 12.9 13.5 12.0 94 0.5 CALM 0 0 0 0 1007.2 1007.1 0.0
31/05:00am 12.9 13.5 12.0 94 0.5 CALM 0 0 0 0 1007.1 1007.0 0.0
31/04:30am 13.3 14.0 12.2 93 0.6 CALM 0 0 0 0 1007.1 1007.0 0.0
31/04:00am 13.5 14.3 12.4 93 0.6 CALM 0 0 0 0 1007.0 1006.9 0.0
31/03:30am 13.5 14.3 12.4 93 0.6 CALM 0 0 0 0 1006.9 1006.8 0.0
31/03:00am 14.1 15.1 13.1 94 0.6 CALM 0 0 0 0 1006.8 1006.7 0.0
31/02:30am 14.2 15.2 13.1 93 0.6 CALM 0 0 0 0 1007.0 1006.9 0.0
31/02:00am 14.4 15.4 13.1 92 0.7 CALM 0 0 0 0 1007.1 1007.0 0.0
31/01:30am 14.7 15.8 13.6 93 0.6 CALM 0 0 0 0 1007.5 1007.4 0.0
31/01:00am 15.0 16.2 13.7 92 0.7 CALM 0 0 0 0 1007.8 1007.7 0.0
31/12:30am 15.3 16.5 13.8 91 0.8 CALM 0 0 0 0 1007.9 1007.8 0.0
31/12:00am 15.4 16.6 13.9 91 0.8 CALM 0 0 0 0 1008.0 1007.9 0.0
 
Date/Time
EDT
Tmp

°C
App
Tmp
°C
Dew
Point
°C
Rel
Hum
%
Delta-T

°C
Wind Press
QNH
hPa
Press
MSL
hPa
Rain
since
9 am
mm
Dir
 
Spd
km/h
Gust
km/h
Spd
kts
Gust
kts
30/11:30pm 15.8 17.1 14.2 90 0.9 CALM 0 0 0 0 1008.1 1008.0 0.0
30/11:00pm 15.9 17.2 14.1 89 1.0 CALM 0 0 0 0 1008.0 1007.9 0.0
30/10:30pm 16.4 17.8 14.4 88 1.1 CALM 0 0 0 0 1007.9 1007.8 0.0
30/10:00pm 17.3 18.8 14.6 84 1.6 CALM 0 0 0 0 1007.7 1007.6 0.0
30/09:30pm 18.0 19.6 14.9 82 1.8 CALM 0 0 0 0 1007.6 1007.5 0.0
30/09:00pm 18.7 20.5 15.4 81 1.9 CALM 0 0 0 0 1007.3 1007.2 0.0
30/08:30pm 18.7 20.3 14.8 78 2.3 CALM 0 0 0 0 1006.9 1006.8 0.0
30/08:00pm 19.9 21.3 14.3 70 3.3 CALM 0 0 0 0 1006.6 1006.5 0.0
30/07:30pm 21.7 23.3 14.8 65 4.1 CALM 0 0 0 0 1006.2 1006.1 0.0
30/07:00pm 22.2 23.2 13.3 57 5.1 CALM 0 0 0 0 1005.7 1005.6 0.0
30/06:30pm 23.0 22.4 11.7 49 6.4 ESE 6 9 3 5 1005.4 1005.3 0.0
30/06:00pm 23.5 23.1 11.2 46 6.9 E 4 9 2 5 1005.4 1005.3 0.0
30/05:30pm 24.4 24.0 12.4 47 6.9 E 6 9 3 5 1005.4 1005.3 0.0
30/05:00pm 24.4 23.4 12.4 47 6.9 ESE 9 13 5 7 1005.4 1005.3 0.0
30/04:30pm 24.5 22.9 11.5 44 7.3 ESE 11 20 6 11 1005.3 1005.2 0.0
30/04:00pm 26.6 24.7 7.6 30 10.2 WSW 7 15 4 8 1005.4 1005.3 0.0
30/03:30pm 25.8 24.2 7.9 32 9.6 SW 6 15 3 8 1005.6 1005.5 0.0
30/03:00pm 25.2 23.2 7.3 32 9.5 SSW 7 13 4 7 1005.7 1005.6 0.0
30/02:30pm 25.6 24.1 8.6 34 9.2 SW 6 17 3 9 1006.1 1006.0 0.0
30/02:00pm 25.2 23.1 8.2 34 9.1 W 9 19 5 10 1006.4 1006.3 0.0
30/01:30pm 25.3 22.6 7.4 32 9.4 W 11 20 6 11 1006.8 1006.7 0.0
30/01:00pm 24.7 22.3 8.6 36 8.7 W 11 24 6 13 1007.1 1007.0 0.0

Latest Capital City Observations: Canberra | Sydney | Melbourne | Brisbane | Adelaide | Perth | Hobart | Darwin

Other Formats:

Comma delimited format used in spreadsheet applications
http://www.bom.gov.au/fwo/IDN60901/IDN60901.95767.axf

JavaScript Object Notation format (JSON) in row-major order
http://www.bom.gov.au/fwo/IDN60901/IDN60901.95767.json